sensor_id;sensor_type;location;lat;lon;timestamp;pressure;altitude;pressure_sealevel;temperature;humidity
20368;BME280;10343;52.402;9.796;2023-05-18T00:02:23;102213.25;;;13.63;42.33
20368;BME280;10343;52.402;9.796;2023-05-18T00:04:52;102211.88;;;14.02;41.75
20368;BME280;10343;52.402;9.796;2023-05-18T00:07:20;102204.81;;;14.00;42.00
20368;BME280;10343;52.402;9.796;2023-05-18T00:09:49;102205.09;;;13.76;42.12
20368;BME280;10343;52.402;9.796;2023-05-18T00:12:18;102202.50;;;13.72;42.29
20368;BME280;10343;52.402;9.796;2023-05-18T00:14:46;102201.16;;;14.05;41.73
20368;BME280;10343;52.402;9.796;2023-05-18T00:17:14;102203.16;;;13.88;42.14
20368;BME280;10343;52.402;9.796;2023-05-18T00:19:47;102207.28;;;14.14;41.56
20368;BME280;10343;52.402;9.796;2023-05-18T00:22:16;102207.81;;;13.70;42.28
20368;BME280;10343;52.402;9.796;2023-05-18T00:24:44;102214.47;;;13.31;43.08
20368;BME280;10343;52.402;9.796;2023-05-18T00:27:14;102213.56;;;14.09;41.71
20368;BME280;10343;52.402;9.796;2023-05-18T00:29:42;102205.91;;;13.83;42.08
20368;BME280;10343;52.402;9.796;2023-05-18T00:32:11;102213.81;;;13.88;42.30
20368;BME280;10343;52.402;9.796;2023-05-18T00:34:39;102223.00;;;13.65;42.92
20368;BME280;10343;52.402;9.796;2023-05-18T00:37:07;102217.38;;;13.90;42.15
20368;BME280;10343;52.402;9.796;2023-05-18T00:39:36;102208.13;;;14.16;41.75
20368;BME280;10343;52.402;9.796;2023-05-18T00:42:04;102217.38;;;13.87;42.08
20368;BME280;10343;52.402;9.796;2023-05-18T00:44:34;102205.72;;;13.97;42.01
20368;BME280;10343;52.402;9.796;2023-05-18T00:47:02;102209.91;;;14.15;41.41
20368;BME280;10343;52.402;9.796;2023-05-18T00:49:37;102216.91;;;14.24;41.31
20368;BME280;10343;52.402;9.796;2023-05-18T00:52:06;102217.69;;;14.31;41.50
20368;BME280;10343;52.402;9.796;2023-05-18T00:54:36;102219.91;;;13.98;42.40
20368;BME280;10343;52.402;9.796;2023-05-18T00:57:05;102215.31;;;14.10;41.75
20368;BME280;10343;52.402;9.796;2023-05-18T00:59:38;102220.03;;;14.54;40.75
20368;BME280;10343;52.402;9.796;2023-05-18T01:02:08;102220.78;;;14.01;41.57
20368;BME280;10343;52.402;9.796;2023-05-18T01:04:38;102225.56;;;14.41;41.12
20368;BME280;10343;52.402;9.796;2023-05-18T01:07:07;102223.38;;;14.06;41.44
20368;BME280;10343;52.402;9.796;2023-05-18T01:09:36;102226.75;;;14.20;41.36
20368;BME280;10343;52.402;9.796;2023-05-18T01:12:11;102232.66;;;13.74;42.30
20368;BME280;10343;52.402;9.796;2023-05-18T01:14:49;102225.84;;;14.20;41.49
20368;BME280;10343;52.402;9.796;2023-05-18T01:17:24;102222.66;;;14.55;40.87
20368;BME280;10343;52.402;9.796;2023-05-18T01:20:25;102229.72;;;13.97;42.19
20368;BME280;10343;52.402;9.796;2023-05-18T01:23:14;102229.94;;;14.46;41.04
20368;BME280;10343;52.402;9.796;2023-05-18T01:25:49;102226.16;;;13.98;42.32
20368;BME280;10343;52.402;9.796;2023-05-18T01:28:27;102229.16;;;14.37;41.15
20368;BME280;10343;52.402;9.796;2023-05-18T01:30:57;102227.41;;;14.36;41.59
20368;BME280;10343;52.402;9.796;2023-05-18T01:33:25;102221.47;;;14.76;40.71
20368;BME280;10343;52.402;9.796;2023-05-18T01:35:53;102226.94;;;14.70;40.88
20368;BME280;10343;52.402;9.796;2023-05-18T01:38:25;102225.28;;;14.58;40.65
20368;BME280;10343;52.402;9.796;2023-05-18T01:40:59;102225.69;;;14.32;40.89
20368;BME280;10343;52.402;9.796;2023-05-18T01:43:34;102230.38;;;14.16;41.71
20368;BME280;10343;52.402;9.796;2023-05-18T01:46:07;102232.91;;;14.24;41.35
20368;BME280;10343;52.402;9.796;2023-05-18T01:48:41;102226.41;;;14.42;41.17
20368;BME280;10343;52.402;9.796;2023-05-18T01:51:12;102238.06;;;13.66;42.55
20368;BME280;10343;52.402;9.796;2023-05-18T01:53:47;102233.66;;;13.62;43.27
20368;BME280;10343;52.402;9.796;2023-05-18T01:56:18;102234.72;;;14.22;41.92
20368;BME280;10343;52.402;9.796;2023-05-18T01:58:49;102228.69;;;14.06;42.15
20368;BME280;10343;52.402;9.796;2023-05-18T02:01:17;102234.25;;;13.90;42.02
20368;BME280;10343;52.402;9.796;2023-05-18T02:03:46;102234.28;;;13.87;42.37
20368;BME280;10343;52.402;9.796;2023-05-18T02:06:14;102237.97;;;13.75;42.82
20368;BME280;10343;52.402;9.796;2023-05-18T02:08:42;102235.56;;;14.24;41.96
20368;BME280;10343;52.402;9.796;2023-05-18T02:11:10;102236.69;;;14.07;42.26
20368;BME280;10343;52.402;9.796;2023-05-18T02:13:39;102235.53;;;13.57;43.34
20368;BME280;10343;52.402;9.796;2023-05-18T02:16:09;102236.94;;;13.87;43.47
20368;BME280;10343;52.402;9.796;2023-05-18T02:18:37;102231.69;;;13.80;43.80
20368;BME280;10343;52.402;9.796;2023-05-18T02:21:07;102236.06;;;13.85;43.76
20368;BME280;10343;52.402;9.796;2023-05-18T02:23:36;102227.09;;;13.94;43.77
20368;BME280;10343;52.402;9.796;2023-05-18T02:26:06;102230.47;;;14.07;43.72
20368;BME280;10343;52.402;9.796;2023-05-18T02:28:34;102233.28;;;13.96;43.83
20368;BME280;10343;52.402;9.796;2023-05-18T02:31:06;102229.28;;;14.31;43.16
20368;BME280;10343;52.402;9.796;2023-05-18T02:33:36;102232.78;;;14.33;42.85
20368;BME280;10343;52.402;9.796;2023-05-18T02:36:09;102228.72;;;14.04;43.59
20368;BME280;10343;52.402;9.796;2023-05-18T02:38:38;102232.72;;;14.36;43.40
20368;BME280;10343;52.402;9.796;2023-05-18T02:41:08;102232.88;;;14.29;43.63
20368;BME280;10343;52.402;9.796;2023-05-18T02:43:37;102228.81;;;14.00;43.79
20368;BME280;10343;52.402;9.796;2023-05-18T02:46:06;102233.75;;;14.27;42.98
20368;BME280;10343;52.402;9.796;2023-05-18T02:48:36;102240.72;;;14.39;43.24
20368;BME280;10343;52.402;9.796;2023-05-18T02:51:04;102233.13;;;14.07;43.47
20368;BME280;10343;52.402;9.796;2023-05-18T02:53:32;102240.56;;;13.83;43.61
20368;BME280;10343;52.402;9.796;2023-05-18T02:56:07;102255.22;;;13.40;44.31
20368;BME280;10343;52.402;9.796;2023-05-18T02:58:48;102235.38;;;13.69;43.70
20368;BME280;10343;52.402;9.796;2023-05-18T03:01:23;102240.72;;;13.66;43.62
20368;BME280;10343;52.402;9.796;2023-05-18T03:03:55;102240.06;;;13.49;43.56
20368;BME280;10343;52.402;9.796;2023-05-18T03:06:25;102236.00;;;13.93;42.98
20368;BME280;10343;52.402;9.796;2023-05-18T03:08:56;102245.66;;;13.15;44.64
20368;BME280;10343;52.402;9.796;2023-05-18T03:11:35;102247.88;;;13.64;43.34
20368;BME280;10343;52.402;9.796;2023-05-18T03:14:04;102247.78;;;13.73;42.80
20368;BME280;10343;52.402;9.796;2023-05-18T03:16:32;102248.00;;;13.52;43.64
20368;BME280;10343;52.402;9.796;2023-05-18T03:19:01;102248.81;;;13.58;43.37
20368;BME280;10343;52.402;9.796;2023-05-18T03:21:34;102253.78;;;12.99;44.22
20368;BME280;10343;52.402;9.796;2023-05-18T03:24:03;102255.66;;;12.88;44.46
20368;BME280;10343;52.402;9.796;2023-05-18T03:26:34;102255.44;;;13.16;44.37
20368;BME280;10343;52.402;9.796;2023-05-18T03:29:04;102253.66;;;13.15;44.03
20368;BME280;10343;52.402;9.796;2023-05-18T03:31:32;102249.31;;;13.01;44.36
20368;BME280;10343;52.402;9.796;2023-05-18T03:34:02;102244.66;;;13.25;43.30
20368;BME280;10343;52.402;9.796;2023-05-18T03:36:31;102251.13;;;13.01;44.01
20368;BME280;10343;52.402;9.796;2023-05-18T03:38:59;102257.34;;;12.98;44.12
20368;BME280;10343;52.402;9.796;2023-05-18T03:41:27;102253.66;;;13.15;44.39
20368;BME280;10343;52.402;9.796;2023-05-18T03:43:55;102259.84;;;13.15;44.33
20368;BME280;10343;52.402;9.796;2023-05-18T03:46:23;102258.19;;;13.03;44.19
20368;BME280;10343;52.402;9.796;2023-05-18T03:48:52;102252.19;;;12.80;44.70
20368;BME280;10343;52.402;9.796;2023-05-18T03:51:37;102260.91;;;13.00;44.22
20368;BME280;10343;52.402;9.796;2023-05-18T03:54:06;102258.56;;;12.54;45.81
20368;BME280;10343;52.402;9.796;2023-05-18T03:56:35;102261.75;;;13.01;44.59
20368;BME280;10343;52.402;9.796;2023-05-18T03:59:03;102264.50;;;12.91;44.82
20368;BME280;10343;52.402;9.796;2023-05-18T04:01:32;102259.16;;;12.96;44.44
20368;BME280;10343;52.402;9.796;2023-05-18T04:04:01;102271.81;;;12.58;45.21
20368;BME280;10343;52.402;9.796;2023-05-18T04:06:34;102268.06;;;12.92;44.82
20368;BME280;10343;52.402;9.796;2023-05-18T04:09:25;102266.13;;;13.09;44.64
20368;BME280;10343;52.402;9.796;2023-05-18T04:11:54;102269.28;;;13.55;43.32
20368;BME280;10343;52.402;9.796;2023-05-18T04:14:22;102263.66;;;13.83;42.48
20368;BME280;10343;52.402;9.796;2023-05-18T04:16:53;102262.53;;;14.69;41.38
20368;BME280;10343;52.402;9.796;2023-05-18T04:19:22;102265.09;;;14.77;40.48
20368;BME280;10343;52.402;9.796;2023-05-18T04:21:50;102269.84;;;14.55;41.02
20368;BME280;10343;52.402;9.796;2023-05-18T04:24:20;102270.41;;;14.15;41.36
20368;BME280;10343;52.402;9.796;2023-05-18T04:26:50;102278.13;;;13.60;42.88
20368;BME280;10343;52.402;9.796;2023-05-18T04:29:18;102279.16;;;13.45;43.15
20368;BME280;10343;52.402;9.796;2023-05-18T04:31:47;102278.16;;;13.54;43.13
20368;BME280;10343;52.402;9.796;2023-05-18T04:34:15;102284.47;;;13.47;43.19
20368;BME280;10343;52.402;9.796;2023-05-18T04:36:45;102290.25;;;12.89;44.10
20368;BME280;10343;52.402;9.796;2023-05-18T04:39:13;102283.66;;;13.38;43.67
20368;BME280;10343;52.402;9.796;2023-05-18T04:41:41;102290.56;;;12.40;45.38
20368;BME280;10343;52.402;9.796;2023-05-18T04:44:11;102291.41;;;12.47;45.73
20368;BME280;10343;52.402;9.796;2023-05-18T04:46:39;102290.31;;;12.79;45.29
20368;BME280;10343;52.402;9.796;2023-05-18T04:49:08;102287.31;;;13.22;43.94
20368;BME280;10343;52.402;9.796;2023-05-18T04:51:37;102292.53;;;13.37;43.80
20368;BME280;10343;52.402;9.796;2023-05-18T04:54:05;102290.78;;;13.30;43.26
20368;BME280;10343;52.402;9.796;2023-05-18T04:56:34;102285.94;;;13.75;43.15
20368;BME280;10343;52.402;9.796;2023-05-18T04:59:03;102292.28;;;13.65;43.54
20368;BME280;10343;52.402;9.796;2023-05-18T05:01:32;102289.06;;;13.26;44.02
20368;BME280;10343;52.402;9.796;2023-05-18T05:04:00;102288.34;;;13.08;44.63
20368;BME280;10343;52.402;9.796;2023-05-18T05:06:29;102293.81;;;12.87;45.06
20368;BME280;10343;52.402;9.796;2023-05-18T05:08:57;102291.22;;;12.78;44.87
20368;BME280;10343;52.402;9.796;2023-05-18T05:11:25;102294.97;;;12.44;45.43
20368;BME280;10343;52.402;9.796;2023-05-18T05:13:53;102295.53;;;12.96;44.53
20368;BME280;10343;52.402;9.796;2023-05-18T05:16:21;102299.00;;;13.05;44.27
20368;BME280;10343;52.402;9.796;2023-05-18T05:18:50;102304.13;;;13.36;43.86
20368;BME280;10343;52.402;9.796;2023-05-18T05:21:19;102303.44;;;13.06;44.64
20368;BME280;10343;52.402;9.796;2023-05-18T05:23:47;102301.59;;;13.15;44.27
20368;BME280;10343;52.402;9.796;2023-05-18T05:26:15;102307.91;;;13.04;44.22
20368;BME280;10343;52.402;9.796;2023-05-18T05:28:44;102308.50;;;13.40;43.80
20368;BME280;10343;52.402;9.796;2023-05-18T05:31:12;102301.06;;;13.76;42.97
20368;BME280;10343;52.402;9.796;2023-05-18T05:33:40;102306.53;;;13.61;43.09
20368;BME280;10343;52.402;9.796;2023-05-18T05:36:10;102304.13;;;13.30;44.15
20368;BME280;10343;52.402;9.796;2023-05-18T05:38:38;102309.97;;;13.72;42.95
20368;BME280;10343;52.402;9.796;2023-05-18T05:41:06;102306.91;;;13.16;43.73
20368;BME280;10343;52.402;9.796;2023-05-18T05:43:37;102307.47;;;13.54;43.92
20368;BME280;10343;52.402;9.796;2023-05-18T05:46:05;102311.00;;;13.59;43.53
20368;BME280;10343;52.402;9.796;2023-05-18T05:48:33;102313.06;;;13.23;43.41
20368;BME280;10343;52.402;9.796;2023-05-18T05:51:02;102314.53;;;13.63;42.70
20368;BME280;10343;52.402;9.796;2023-05-18T05:53:33;102319.41;;;13.06;43.50
20368;BME280;10343;52.402;9.796;2023-05-18T05:56:02;102322.38;;;12.55;44.39
20368;BME280;10343;52.402;9.796;2023-05-18T05:58:34;102325.91;;;12.57;44.75
20368;BME280;10343;52.402;9.796;2023-05-18T06:01:02;102323.47;;;13.54;42.71
20368;BME280;10343;52.402;9.796;2023-05-18T06:03:30;102316.78;;;14.01;42.30
20368;BME280;10343;52.402;9.796;2023-05-18T06:06:04;102326.91;;;14.44;41.65
20368;BME280;10343;52.402;9.796;2023-05-18T06:08:34;102317.78;;;14.64;40.47
20368;BME280;10343;52.402;9.796;2023-05-18T06:11:02;102320.63;;;14.49;40.71
20368;BME280;10343;52.402;9.796;2023-05-18T06:13:31;102322.19;;;14.67;40.55
20368;BME280;10343;52.402;9.796;2023-05-18T06:16:00;102331.41;;;15.06;39.21
20368;BME280;10343;52.402;9.796;2023-05-18T06:18:28;102321.03;;;15.41;38.85
20368;BME280;10343;52.402;9.796;2023-05-18T06:21:02;102327.38;;;15.35;38.33
20368;BME280;10343;52.402;9.796;2023-05-18T06:23:31;102331.47;;;15.55;38.25
20368;BME280;10343;52.402;9.796;2023-05-18T06:26:03;102323.66;;;15.42;38.33
20368;BME280;10343;52.402;9.796;2023-05-18T06:28:34;102324.47;;;15.48;38.27
20368;BME280;10343;52.402;9.796;2023-05-18T06:31:20;102321.56;;;15.10;38.81
20368;BME280;10343;52.402;9.796;2023-05-18T06:34:09;102329.44;;;15.69;37.72
20368;BME280;10343;52.402;9.796;2023-05-18T06:36:37;102327.72;;;14.51;39.54
20368;BME280;10343;52.402;9.796;2023-05-18T06:39:05;102334.53;;;15.32;38.60
20368;BME280;10343;52.402;9.796;2023-05-18T06:41:34;102336.41;;;15.78;37.87
20368;BME280;10343;52.402;9.796;2023-05-18T06:44:03;102331.50;;;16.03;37.09
20368;BME280;10343;52.402;9.796;2023-05-18T06:46:35;102337.56;;;15.63;38.22
20368;BME280;10343;52.402;9.796;2023-05-18T06:49:20;102335.69;;;15.68;38.04
20368;BME280;10343;52.402;9.796;2023-05-18T06:51:48;102338.81;;;15.43;38.82
20368;BME280;10343;52.402;9.796;2023-05-18T06:54:16;102327.31;;;15.38;38.30
20368;BME280;10343;52.402;9.796;2023-05-18T06:56:46;102336.88;;;14.97;38.54
20368;BME280;10343;52.402;9.796;2023-05-18T06:59:15;102334.00;;;15.64;37.64
20368;BME280;10343;52.402;9.796;2023-05-18T07:01:43;102332.34;;;16.49;36.28
20368;BME280;10343;52.402;9.796;2023-05-18T07:04:13;102341.13;;;15.65;37.81
20368;BME280;10343;52.402;9.796;2023-05-18T07:06:43;102346.84;;;14.86;38.92
20368;BME280;10343;52.402;9.796;2023-05-18T07:09:12;102338.38;;;14.51;39.63
20368;BME280;10343;52.402;9.796;2023-05-18T07:11:40;102330.88;;;15.90;37.73
20368;BME280;10343;52.402;9.796;2023-05-18T07:14:09;102334.47;;;16.33;36.76
20368;BME280;10343;52.402;9.796;2023-05-18T07:16:37;102329.06;;;16.77;35.96
20368;BME280;10343;52.402;9.796;2023-05-18T07:19:05;102342.91;;;15.63;37.50
20368;BME280;10343;52.402;9.796;2023-05-18T07:21:33;102337.28;;;16.27;36.37
20368;BME280;10343;52.402;9.796;2023-05-18T07:24:01;102340.59;;;15.94;36.94
20368;BME280;10343;52.402;9.796;2023-05-18T07:26:29;102335.44;;;16.71;36.12
20368;BME280;10343;52.402;9.796;2023-05-18T07:28:58;102334.91;;;16.96;35.83
20368;BME280;10343;52.402;9.796;2023-05-18T07:31:27;102336.13;;;17.19;35.30
20368;BME280;10343;52.402;9.796;2023-05-18T07:33:55;102341.44;;;16.40;36.29
20368;BME280;10343;52.402;9.796;2023-05-18T07:36:24;102356.31;;;16.11;36.46
20368;BME280;10343;52.402;9.796;2023-05-18T07:38:54;102340.47;;;16.44;36.15
20368;BME280;10343;52.402;9.796;2023-05-18T07:41:22;102340.47;;;16.85;35.35
20368;BME280;10343;52.402;9.796;2023-05-18T07:43:51;102347.97;;;15.82;37.00
20368;BME280;10343;52.402;9.796;2023-05-18T07:46:19;102342.97;;;16.10;36.64
20368;BME280;10343;52.402;9.796;2023-05-18T07:48:49;102344.31;;;15.87;37.24
20368;BME280;10343;52.402;9.796;2023-05-18T07:51:17;102342.69;;;15.75;37.85
20368;BME280;10343;52.402;9.796;2023-05-18T07:53:45;102339.81;;;16.33;36.41
20368;BME280;10343;52.402;9.796;2023-05-18T07:56:14;102332.69;;;16.74;35.67
20368;BME280;10343;52.402;9.796;2023-05-18T07:58:42;102330.22;;;17.40;34.65
20368;BME280;10343;52.402;9.796;2023-05-18T08:01:11;102332.38;;;17.26;34.74
20368;BME280;10343;52.402;9.796;2023-05-18T08:03:39;102331.75;;;17.14;34.91
20368;BME280;10343;52.402;9.796;2023-05-18T08:06:09;102324.72;;;17.10;34.94
20368;BME280;10343;52.402;9.796;2023-05-18T08:08:38;102326.56;;;17.44;34.85
20368;BME280;10343;52.402;9.796;2023-05-18T08:11:06;102335.06;;;16.87;35.38
20368;BME280;10343;52.402;9.796;2023-05-18T08:13:34;102330.03;;;17.82;34.22
20368;BME280;10343;52.402;9.796;2023-05-18T08:16:02;102328.69;;;17.66;34.69
20368;BME280;10343;52.402;9.796;2023-05-18T08:18:35;102329.53;;;18.01;34.01
20368;BME280;10343;52.402;9.796;2023-05-18T08:21:04;102339.38;;;16.55;35.99
20368;BME280;10343;52.402;9.796;2023-05-18T08:23:35;102337.09;;;17.51;34.46
20368;BME280;10343;52.402;9.796;2023-05-18T08:26:03;102335.19;;;17.56;34.36
20368;BME280;10343;52.402;9.796;2023-05-18T08:28:31;102336.31;;;17.47;34.56
20368;BME280;10343;52.402;9.796;2023-05-18T08:30:59;102331.31;;;17.33;34.80
20368;BME280;10343;52.402;9.796;2023-05-18T08:33:27;102321.09;;;18.73;32.67
20368;BME280;10343;52.402;9.796;2023-05-18T08:35:57;102330.94;;;17.12;34.60
20368;BME280;10343;52.402;9.796;2023-05-18T08:38:26;102317.63;;;18.11;33.57
20368;BME280;10343;52.402;9.796;2023-05-18T08:41:00;102319.31;;;17.12;35.02
20368;BME280;10343;52.402;9.796;2023-05-18T08:43:31;102307.59;;;18.16;33.63
20368;BME280;10343;52.402;9.796;2023-05-18T08:46:04;102311.94;;;17.56;34.61
20368;BME280;10343;52.402;9.796;2023-05-18T08:48:35;102315.28;;;17.66;34.06
20368;BME280;10343;52.402;9.796;2023-05-18T08:51:05;102298.06;;;18.06;33.46
20368;BME280;10343;52.402;9.796;2023-05-18T08:53:35;102300.09;;;17.98;33.93
20368;BME280;10343;52.402;9.796;2023-05-18T08:56:07;102299.03;;;18.04;33.72
20368;BME280;10343;52.402;9.796;2023-05-18T08:58:43;102299.88;;;18.06;33.87
20368;BME280;10343;52.402;9.796;2023-05-18T09:01:12;102295.97;;;18.47;33.06
20368;BME280;10343;52.402;9.796;2023-05-18T09:03:40;102303.44;;;18.06;33.62
20368;BME280;10343;52.402;9.796;2023-05-18T09:06:09;102306.38;;;17.97;33.71
20368;BME280;10343;52.402;9.796;2023-05-18T09:08:38;102301.56;;;19.25;32.05
20368;BME280;10343;52.402;9.796;2023-05-18T09:11:09;102299.75;;;18.98;32.28
20368;BME280;10343;52.402;9.796;2023-05-18T09:13:39;102294.63;;;18.32;33.09
20368;BME280;10343;52.402;9.796;2023-05-18T09:16:08;102297.38;;;18.59;32.74
20368;BME280;10343;52.402;9.796;2023-05-18T09:18:36;102290.59;;;19.04;32.25
20368;BME280;10343;52.402;9.796;2023-05-18T09:21:05;102284.03;;;19.90;31.05
20368;BME280;10343;52.402;9.796;2023-05-18T09:23:33;102283.03;;;20.86;30.13
20368;BME280;10343;52.402;9.796;2023-05-18T09:26:02;102281.53;;;19.85;30.91
20368;BME280;10343;52.402;9.796;2023-05-18T09:28:35;102290.84;;;19.50;31.13
20368;BME280;10343;52.402;9.796;2023-05-18T09:31:05;102280.19;;;19.72;30.92
20368;BME280;10343;52.402;9.796;2023-05-18T09:33:36;102272.94;;;21.34;28.77
20368;BME280;10343;52.402;9.796;2023-05-18T09:36:05;102282.44;;;20.56;29.82
20368;BME280;10343;52.402;9.796;2023-05-18T09:38:36;102277.75;;;20.37;30.52
20368;BME280;10343;52.402;9.796;2023-05-18T09:41:09;102276.03;;;20.82;29.46
20368;BME280;10343;52.402;9.796;2023-05-18T09:43:39;102275.56;;;20.48;30.00
20368;BME280;10343;52.402;9.796;2023-05-18T09:46:10;102262.78;;;22.20;27.69
20368;BME280;10343;52.402;9.796;2023-05-18T09:48:41;102266.72;;;21.32;28.77
20368;BME280;10343;52.402;9.796;2023-05-18T09:51:09;102276.31;;;20.96;29.32
20368;BME280;10343;52.402;9.796;2023-05-18T09:53:39;102270.50;;;21.48;28.61
20368;BME280;10343;52.402;9.796;2023-05-18T09:56:07;102275.69;;;21.12;29.24
20368;BME280;10343;52.402;9.796;2023-05-18T09:58:39;102271.44;;;21.88;28.14
20368;BME280;10343;52.402;9.796;2023-05-18T10:01:08;102266.91;;;21.07;28.82
20368;BME280;10343;52.402;9.796;2023-05-18T10:03:37;102272.66;;;21.19;28.64
20368;BME280;10343;52.402;9.796;2023-05-18T10:06:07;102265.50;;;20.98;28.79
20368;BME280;10343;52.402;9.796;2023-05-18T10:08:36;102266.75;;;21.52;28.04
20368;BME280;10343;52.402;9.796;2023-05-18T10:11:04;102274.16;;;19.91;30.50
20368;BME280;10343;52.402;9.796;2023-05-18T10:13:33;102267.72;;;20.18;30.03
20368;BME280;10343;52.402;9.796;2023-05-18T10:16:04;102266.00;;;20.85;29.05
20368;BME280;10343;52.402;9.796;2023-05-18T10:18:35;102258.44;;;22.55;27.39
20368;BME280;10343;52.402;9.796;2023-05-18T10:21:05;102253.63;;;23.34;26.09
20368;BME280;10343;52.402;9.796;2023-05-18T10:23:35;102256.25;;;23.86;25.38
20368;BME280;10343;52.402;9.796;2023-05-18T10:26:04;102271.34;;;20.17;30.06
20368;BME280;10343;52.402;9.796;2023-05-18T10:28:37;102270.72;;;19.35;31.05
20368;BME280;10343;52.402;9.796;2023-05-18T10:31:09;102269.00;;;19.34;31.31
20368;BME280;10343;52.402;9.796;2023-05-18T10:33:37;102277.28;;;18.44;32.88
20368;BME280;10343;52.402;9.796;2023-05-18T10:36:06;102268.09;;;18.52;32.64
20368;BME280;10343;52.402;9.796;2023-05-18T10:38:36;102259.69;;;19.68;31.27
20368;BME280;10343;52.402;9.796;2023-05-18T10:41:06;102248.63;;;20.01;30.63
20368;BME280;10343;52.402;9.796;2023-05-18T10:43:36;102259.53;;;19.98;30.49
20368;BME280;10343;52.402;9.796;2023-05-18T10:46:05;102256.88;;;20.66;29.81
20368;BME280;10343;52.402;9.796;2023-05-18T10:48:37;102249.88;;;21.68;28.01
20368;BME280;10343;52.402;9.796;2023-05-18T10:51:06;102251.75;;;20.60;29.71
20368;BME280;10343;52.402;9.796;2023-05-18T10:53:35;102233.78;;;22.62;27.02
20368;BME280;10343;52.402;9.796;2023-05-18T10:56:03;102235.34;;;22.29;27.55
20368;BME280;10343;52.402;9.796;2023-05-18T10:58:35;102237.34;;;20.61;29.64
20368;BME280;10343;52.402;9.796;2023-05-18T11:01:07;102239.97;;;20.40;29.77
20368;BME280;10343;52.402;9.796;2023-05-18T11:03:38;102227.91;;;20.27;30.06
20368;BME280;10343;52.402;9.796;2023-05-18T11:06:09;102223.78;;;22.26;28.06
20368;BME280;10343;52.402;9.796;2023-05-18T11:08:42;102215.91;;;22.77;27.01
20368;BME280;10343;52.402;9.796;2023-05-18T11:11:11;102214.41;;;22.34;26.92
20368;BME280;10343;52.402;9.796;2023-05-18T11:13:43;102217.00;;;21.79;27.65
20368;BME280;10343;52.402;9.796;2023-05-18T11:16:12;102212.63;;;21.95;27.53
20368;BME280;10343;52.402;9.796;2023-05-18T11:18:44;102214.88;;;20.38;29.49
20368;BME280;10343;52.402;9.796;2023-05-18T11:21:29;102215.38;;;21.75;27.98
20368;BME280;10343;52.402;9.796;2023-05-18T11:24:21;102222.22;;;21.21;28.26
20368;BME280;10343;52.402;9.796;2023-05-18T11:26:51;102208.69;;;21.83;27.68
20368;BME280;10343;52.402;9.796;2023-05-18T11:29:21;102219.41;;;21.25;28.36
20368;BME280;10343;52.402;9.796;2023-05-18T11:31:51;102206.38;;;22.33;26.76
20368;BME280;10343;52.402;9.796;2023-05-18T11:34:41;102210.44;;;22.22;27.02
20368;BME280;10343;52.402;9.796;2023-05-18T11:37:14;102212.03;;;21.88;27.38
20368;BME280;10343;52.402;9.796;2023-05-18T11:39:52;102202.97;;;21.70;27.50
20368;BME280;10343;52.402;9.796;2023-05-18T11:42:31;102203.91;;;22.82;26.57
20368;BME280;10343;52.402;9.796;2023-05-18T11:45:05;102194.53;;;23.60;25.45
20368;BME280;10343;52.402;9.796;2023-05-18T11:47:33;102197.66;;;22.45;25.99
20368;BME280;10343;52.402;9.796;2023-05-18T11:50:06;102203.88;;;21.50;27.49
20368;BME280;10343;52.402;9.796;2023-05-18T11:52:44;102216.88;;;19.62;29.76
20368;BME280;10343;52.402;9.796;2023-05-18T11:55:14;102214.91;;;18.90;31.14
20368;BME280;10343;52.402;9.796;2023-05-18T11:57:43;102202.53;;;19.87;29.94
20368;BME280;10343;52.402;9.796;2023-05-18T12:00:12;102200.06;;;21.56;27.43
20368;BME280;10343;52.402;9.796;2023-05-18T12:02:43;102196.19;;;21.41;27.54
20368;BME280;10343;52.402;9.796;2023-05-18T12:05:13;102194.50;;;21.18;27.40
20368;BME280;10343;52.402;9.796;2023-05-18T12:07:42;102190.72;;;21.63;27.11
20368;BME280;10343;52.402;9.796;2023-05-18T12:10:12;102188.25;;;21.59;27.60
20368;BME280;10343;52.402;9.796;2023-05-18T12:12:46;102193.19;;;21.68;27.33
20368;BME280;10343;52.402;9.796;2023-05-18T12:15:15;102184.50;;;22.74;26.01
20368;BME280;10343;52.402;9.796;2023-05-18T12:17:44;102189.41;;;22.48;26.60
20368;BME280;10343;52.402;9.796;2023-05-18T12:20:16;102184.34;;;22.04;26.97
20368;BME280;10343;52.402;9.796;2023-05-18T12:22:46;102179.78;;;22.23;26.46
20368;BME280;10343;52.402;9.796;2023-05-18T12:25:15;102180.53;;;21.89;26.99
20368;BME280;10343;52.402;9.796;2023-05-18T12:27:44;102172.19;;;22.51;26.45
20368;BME280;10343;52.402;9.796;2023-05-18T12:30:16;102171.78;;;23.62;25.13
20368;BME280;10343;52.402;9.796;2023-05-18T12:32:46;102184.31;;;21.66;27.63
20368;BME280;10343;52.402;9.796;2023-05-18T12:35:16;102176.00;;;21.89;27.57
20368;BME280;10343;52.402;9.796;2023-05-18T12:37:44;102167.81;;;22.48;27.00
20368;BME280;10343;52.402;9.796;2023-05-18T12:40:21;102178.19;;;21.21;28.21
20368;BME280;10343;52.402;9.796;2023-05-18T12:43:17;102172.72;;;22.02;27.50
20368;BME280;10343;52.402;9.796;2023-05-18T12:45:54;102167.81;;;22.10;27.16
20368;BME280;10343;52.402;9.796;2023-05-18T12:48:25;102161.25;;;23.24;26.11
20368;BME280;10343;52.402;9.796;2023-05-18T12:50:55;102159.16;;;23.63;25.73
20368;BME280;10343;52.402;9.796;2023-05-18T12:53:23;102154.94;;;23.06;26.16
20368;BME280;10343;52.402;9.796;2023-05-18T12:55:58;102163.84;;;22.73;26.26
20368;BME280;10343;52.402;9.796;2023-05-18T12:58:27;102150.56;;;24.04;24.79
20368;BME280;10343;52.402;9.796;2023-05-18T13:00:55;102161.69;;;23.66;25.04
20368;BME280;10343;52.402;9.796;2023-05-18T13:03:23;102159.00;;;22.80;26.10
20368;BME280;10343;52.402;9.796;2023-05-18T13:06:02;102158.44;;;23.26;25.85
20368;BME280;10343;52.402;9.796;2023-05-18T13:08:31;102146.91;;;23.89;24.80